Time,TemperatureF,DewpointF,PressureIn,WindDirection,WindDirectionDegrees,WindSpeedMPH,WindSpeedGustMPH,Humidity,HourlyPrecipIn,Conditions,Clouds,dailyrainin,SoftwareType,DateUTC
2013-02-07 00:02:00,-999.0,-99.9,-100.00,SE,128,4.0,5.0,-999,-99.99,,,-99.99,,2013-02-07 05:02:00,
2013-02-07 00:12:00,-999.0,-99.9,-100.00,SE,143,5.0,6.0,-999,-99.99,,,-99.99,,2013-02-07 05:12:00,
2013-02-07 00:22:00,-999.0,-99.9,-100.00,SSE,158,4.0,6.0,-999,-99.99,,,-99.99,,2013-02-07 05:22:00,
2013-02-07 00:32:00,-999.0,-99.9,-100.00,SSE,151,4.0,6.0,-999,-99.99,,,-99.99,,2013-02-07 05:32:00,
2013-02-07 00:43:00,-999.0,-99.9,-100.00,SE,146,3.0,4.0,-999,-99.99,,,-99.99,,2013-02-07 05:43:00,
2013-02-07 00:52:00,-999.0,-99.9,-100.00,SE,133,5.0,7.0,-999,-99.99,,,-99.99,,2013-02-07 05:52:00,
2013-02-07 01:02:00,-999.0,-99.9,-100.00,ESE,121,3.0,4.0,-999,-99.99,,,-99.99,,2013-02-07 06:02:00,
2013-02-07 01:11:00,-999.0,-99.9,-100.00,ESE,109,3.0,4.0,-999,-99.99,,,-99.99,,2013-02-07 06:11:00,
2013-02-07 01:22:00,-999.0,-99.9,-100.00,ESE,110,3.0,4.0,-999,-99.99,,,-99.99,,2013-02-07 06:22:00,
2013-02-07 01:32:00,-999.0,-99.9,-100.00,SE,130,2.0,4.0,-999,-99.99,,,-99.99,,2013-02-07 06:32:00,
2013-02-07 01:43:00,-999.0,-99.9,-100.00,ESE,120,4.0,6.0,-999,-99.99,,,-99.99,,2013-02-07 06:43:00,
2013-02-07 02:02:00,-999.0,-99.9,-100.00,ESE,114,3.0,5.0,-999,-99.99,,,-99.99,,2013-02-07 07:02:00,
2013-02-07 02:12:00,-999.0,-99.9,-100.00,ESE,106,2.0,4.0,-999,-99.99,,,-99.99,,2013-02-07 07:12:00,
2013-02-07 02:22:00,-999.0,-99.9,-100.00,East,99,4.0,5.0,-999,-99.99,,,-99.99,,2013-02-07 07:22:00,
2013-02-07 02:32:00,-999.0,-99.9,-100.00,East,90,3.0,5.0,-999,-99.99,,,-99.99,,2013-02-07 07:32:00,
2013-02-07 02:42:00,-999.0,-99.9,-100.00,East,98,3.0,4.0,-999,-99.99,,,-99.99,,2013-02-07 07:42:00,
2013-02-07 02:53:00,-999.0,-99.9,-100.00,ESE,117,3.0,4.0,-999,-99.99,,,-99.99,,2013-02-07 07:53:00,
2013-02-07 03:02:00,-999.0,-99.9,-100.00,East,91,4.0,5.0,-999,-99.99,,,-99.99,,2013-02-07 08:02:00,
2013-02-07 03:11:00,-999.0,-99.9,-100.00,East,95,4.0,5.0,-999,-99.99,,,-99.99,,2013-02-07 08:11:00,
2013-02-07 03:22:00,-999.0,-99.9,-100.00,ESE,105,3.0,5.0,-999,-99.99,,,-99.99,,2013-02-07 08:22:00,
2013-02-07 03:32:00,-999.0,-99.9,-100.00,East,98,2.0,4.0,-999,-99.99,,,-99.99,,2013-02-07 08:32:00,
2013-02-07 03:42:00,-999.0,-99.9,-100.00,East,94,3.0,3.0,-999,-99.99,,,-99.99,,2013-02-07 08:42:00,
2013-02-07 03:52:00,-999.0,-99.9,-100.00,East,98,3.0,4.0,-999,-99.99,,,-99.99,,2013-02-07 08:52:00,
2013-02-07 04:02:00,-999.0,-99.9,-100.00,East,100,2.0,4.0,-999,-99.99,,,-99.99,,2013-02-07 09:02:00,
2013-02-07 04:12:00,-999.0,-99.9,-100.00,ESE,106,4.0,5.0,-999,-99.99,,,-99.99,,2013-02-07 09:12:00,
2013-02-07 04:22:00,-999.0,-99.9,-100.00,East,89,4.0,5.0,-999,-99.99,,,-99.99,,2013-02-07 09:22:00,
2013-02-07 04:32:00,-999.0,-99.9,-100.00,East,96,3.0,5.0,-999,-99.99,,,-99.99,,2013-02-07 09:32:00,
2013-02-07 04:42:00,-999.0,-99.9,-100.00,East,87,4.0,5.0,-999,-99.99,,,-99.99,,2013-02-07 09:42:00,
2013-02-07 04:52:00,-999.0,-99.9,-100.00,East,89,5.0,6.0,-999,-99.99,,,-99.99,,2013-02-07 09:52:00,
2013-02-07 05:02:00,-999.0,-99.9,-100.00,East,93,5.0,6.0,-999,-99.99,,,-99.99,,2013-02-07 10:02:00,
2013-02-07 05:11:00,-999.0,-99.9,-100.00,ESE,108,4.0,6.0,-999,-99.99,,,-99.99,,2013-02-07 10:11:00,
2013-02-07 05:22:00,-999.0,-99.9,-100.00,East,90,5.0,6.0,-999,-99.99,,,-99.99,,2013-02-07 10:22:00,
2013-02-07 05:32:00,-999.0,-99.9,-100.00,East,90,5.0,7.0,-999,-99.99,,,-99.99,,2013-02-07 10:32:00,
2013-02-07 05:42:00,-999.0,-99.9,-100.00,East,95,5.0,7.0,-999,-99.99,,,-99.99,,2013-02-07 10:42:00,
2013-02-07 05:52:00,-999.0,-99.9,-100.00,East,96,6.0,7.0,-999,-99.99,,,-99.99,,2013-02-07 10:52:00,
2013-02-07 06:02:00,-999.0,-99.9,-100.00,East,90,6.0,7.0,-999,-99.99,,,-99.99,,2013-02-07 11:02:00,
2013-02-07 06:12:00,-999.0,-99.9,-100.00,East,95,5.0,8.0,-999,-99.99,,,-99.99,,2013-02-07 11:12:00,
2013-02-07 06:23:00,-999.0,-99.9,-100.00,East,82,5.0,8.0,-999,-99.99,,,-99.99,,2013-02-07 11:23:00,
2013-02-07 06:32:00,-999.0,-99.9,-100.00,ENE,72,5.0,8.0,-999,-99.99,,,-99.99,,2013-02-07 11:32:00,
2013-02-07 06:44:00,-999.0,-99.9,-100.00,ENE,73,5.0,7.0,-999,-99.99,,,-99.99,,2013-02-07 11:44:00,
2013-02-07 06:53:00,-999.0,-99.9,-100.00,East,80,6.0,8.0,-999,-99.99,,,-99.99,,2013-02-07 11:53:00,
2013-02-07 07:02:00,-999.0,-99.9,-100.00,East,94,7.0,9.0,-999,-99.99,,,-99.99,,2013-02-07 12:02:00,
2013-02-07 07:12:00,-999.0,-99.9,-100.00,East,79,7.0,9.0,-999,-99.99,,,-99.99,,2013-02-07 12:12:00,
2013-02-07 07:22:00,-999.0,-99.9,-100.00,East,86,4.0,6.0,-999,-99.99,,,-99.99,,2013-02-07 12:22:00,
2013-02-07 07:33:00,-999.0,-99.9,-100.00,East,99,5.0,8.0,-999,-99.99,,,-99.99,,2013-02-07 12:33:00,
2013-02-07 07:42:00,-999.0,-99.9,-100.00,East,96,5.0,8.0,-999,-99.99,,,-99.99,,2013-02-07 12:42:00,
2013-02-07 07:53:00,-999.0,-99.9,-100.00,East,96,7.0,9.0,-999,-99.99,,,-99.99,,2013-02-07 12:53:00,
2013-02-07 08:03:00,-999.0,-99.9,-100.00,East,96,7.0,10.0,-999,-99.99,,,-99.99,,2013-02-07 13:03:00,
2013-02-07 08:12:00,-999.0,-99.9,-100.00,East,94,7.0,9.0,-999,-99.99,,,-99.99,,2013-02-07 13:12:00,
2013-02-07 08:22:00,-999.0,-99.9,-100.00,East,96,8.0,11.0,-999,-99.99,,,-99.99,,2013-02-07 13:22:00,
2013-02-07 08:33:00,-999.0,-99.9,-100.00,East,88,7.0,10.0,-999,-99.99,,,-99.99,,2013-02-07 13:33:00,
2013-02-07 08:42:00,-999.0,-99.9,-100.00,East,92,6.0,10.0,-999,-99.99,,,-99.99,,2013-02-07 13:42:00,
2013-02-07 08:52:00,-999.0,-99.9,-100.00,East,88,5.0,8.0,-999,-99.99,,,-99.99,,2013-02-07 13:52:00,
2013-02-07 09:02:00,-999.0,-99.9,-100.00,East,85,5.0,8.0,-999,-99.99,,,-99.99,,2013-02-07 14:02:00,
2013-02-07 09:12:00,-999.0,-99.9,-100.00,East,96,7.0,9.0,-999,-99.99,,,-99.99,,2013-02-07 14:12:00,
2013-02-07 09:22:00,-999.0,-99.9,-100.00,East,79,5.0,8.0,-999,-99.99,,,-99.99,,2013-02-07 14:22:00,
2013-02-07 09:32:00,-999.0,-99.9,-100.00,East,87,6.0,9.0,-999,-99.99,,,-99.99,,2013-02-07 14:32:00,
2013-02-07 09:42:00,-999.0,-99.9,-100.00,East,91,7.0,10.0,-999,-99.99,,,-99.99,,2013-02-07 14:42:00,
2013-02-07 09:52:00,-999.0,-99.9,-100.00,East,83,6.0,8.0,-999,-99.99,,,-99.99,,2013-02-07 14:52:00,
2013-02-07 10:02:00,-999.0,-99.9,-100.00,East,91,6.0,9.0,-999,-99.99,,,-99.99,,2013-02-07 15:02:00,
2013-02-07 10:11:00,-999.0,-99.9,-100.00,East,92,9.0,11.0,-999,-99.99,,,-99.99,,2013-02-07 15:11:00,
2013-02-07 10:22:00,-999.0,-99.9,-100.00,East,89,7.0,10.0,-999,-99.99,,,-99.99,,2013-02-07 15:22:00,
2013-02-07 10:32:00,-999.0,-99.9,-100.00,East,80,6.0,9.0,-999,-99.99,,,-99.99,,2013-02-07 15:32:00,
2013-02-07 10:42:00,-999.0,-99.9,-100.00,ENE,72,8.0,11.0,-999,-99.99,,,-99.99,,2013-02-07 15:42:00,
2013-02-07 10:53:00,-999.0,-99.9,-100.00,ENE,75,8.0,10.0,-999,-99.99,,,-99.99,,2013-02-07 15:53:00,
2013-02-07 11:02:00,-999.0,-99.9,-100.00,ENE,78,8.0,11.0,-999,-99.99,,,-99.99,,2013-02-07 16:02:00,
2013-02-07 11:11:00,-999.0,-99.9,-100.00,East,83,6.0,10.0,-999,-99.99,,,-99.99,,2013-02-07 16:11:00,
2013-02-07 11:22:00,-999.0,-99.9,-100.00,East,90,7.0,10.0,-999,-99.99,,,-99.99,,2013-02-07 16:22:00,
2013-02-07 11:32:00,-999.0,-99.9,-100.00,East,81,6.0,9.0,-999,-99.99,,,-99.99,,2013-02-07 16:32:00,
2013-02-07 11:42:00,-999.0,-99.9,-100.00,East,80,6.0,10.0,-999,-99.99,,,-99.99,,2013-02-07 16:42:00,
2013-02-07 11:52:00,-999.0,-99.9,-100.00,ENE,69,8.0,11.0,-999,-99.99,,,-99.99,,2013-02-07 16:52:00,
2013-02-07 12:02:00,-999.0,-99.9,-100.00,ENE,65,9.0,12.0,-999,-99.99,,,-99.99,,2013-02-07 17:02:00,
2013-02-07 12:11:00,-999.0,-99.9,-100.00,ENE,65,5.0,11.0,-999,-99.99,,,-99.99,,2013-02-07 17:11:00,
2013-02-07 12:22:00,-999.0,-99.9,-100.00,NE,51,7.0,11.0,-999,-99.99,,,-99.99,,2013-02-07 17:22:00,
2013-02-07 12:32:00,-999.0,-99.9,-100.00,ENE,65,10.0,13.0,-999,-99.99,,,-99.99,,2013-02-07 17:32:00,
2013-02-07 12:43:00,-999.0,-99.9,-100.00,ENE,65,9.0,13.0,-999,-99.99,,,-99.99,,2013-02-07 17:43:00,
2013-02-07 12:52:00,-999.0,-99.9,-100.00,ENE,59,7.0,11.0,-999,-99.99,,,-99.99,,2013-02-07 17:52:00,
2013-02-07 13:02:00,-999.0,-99.9,-100.00,ENE,57,7.0,12.0,-999,-99.99,,,-99.99,,2013-02-07 18:02:00,
2013-02-07 13:12:00,-999.0,-99.9,-100.00,NE,53,8.0,13.0,-999,-99.99,,,-99.99,,2013-02-07 18:12:00,
2013-02-07 13:23:00,-999.0,-99.9,-100.00,ENE,68,7.0,15.0,-999,-99.99,,,-99.99,,2013-02-07 18:23:00,
2013-02-07 13:32:00,-999.0,-99.9,-100.00,ENE,62,8.0,14.0,-999,-99.99,,,-99.99,,2013-02-07 18:32:00,
2013-02-07 13:42:00,-999.0,-99.9,-100.00,NE,54,10.0,13.0,-999,-99.99,,,-99.99,,2013-02-07 18:42:00,
2013-02-07 13:52:00,30.0,-99.9,30.24,NE,48,9.0,14.0,-999,-99.99,,,-99.99,,2013-02-07 18:52:00,
2013-02-07 14:02:00,-999.0,-99.9,-100.00,ENE,60,5.0,13.0,-999,-99.99,,,-99.99,,2013-02-07 19:02:00,
2013-02-07 14:11:00,-999.0,-99.9,-100.00,NE,53,11.0,14.0,-999,-99.99,,,-99.99,,2013-02-07 19:11:00,
2013-02-07 14:22:00,-999.0,-99.9,-100.00,NE,48,10.0,13.0,-999,-99.99,,,-99.99,,2013-02-07 19:22:00,
2013-02-07 14:32:00,-999.0,-99.9,-100.00,NE,55,9.0,14.0,-999,-99.99,,,-99.99,,2013-02-07 19:32:00,
2013-02-07 14:42:00,-999.0,-99.9,-100.00,NE,51,9.0,14.0,-999,-99.99,,,-99.99,,2013-02-07 19:42:00,
2013-02-07 14:52:00,-999.0,-99.9,-100.00,NE,50,5.0,13.0,-999,-99.99,,,-99.99,,2013-02-07 19:52:00,
2013-02-07 15:01:00,-999.0,-99.9,-100.00,NE,48,8.0,14.0,-999,-99.99,,,-99.99,,2013-02-07 20:01:00,
2013-02-07 15:11:00,-999.0,-99.9,-100.00,NE,47,9.0,13.0,-999,-99.99,,,-99.99,,2013-02-07 20:11:00,
2013-02-07 15:22:00,-999.0,-99.9,-100.00,NE,42,13.0,18.0,-999,-99.99,,,-99.99,,2013-02-07 20:22:00,
2013-02-07 15:32:00,-999.0,-99.9,-100.00,NE,36,15.0,17.0,-999,-99.99,,,-99.99,,2013-02-07 20:32:00,
2013-02-07 15:42:00,-999.0,-99.9,-100.00,NE,51,15.0,18.0,-999,-99.99,,,-99.99,,2013-02-07 20:42:00,
2013-02-07 15:52:00,-999.0,-99.9,-100.00,ENE,65,12.0,19.0,-999,-99.99,,,-99.99,,2013-02-07 20:52:00,
2013-02-07 16:02:00,-999.0,-99.9,-100.00,ENE,63,10.0,18.0,-999,-99.99,,,-99.99,,2013-02-07 21:02:00,
2013-02-07 16:11:00,-999.0,-99.9,-100.00,NE,56,10.0,18.0,-999,-99.99,,,-99.99,,2013-02-07 21:11:00,
2013-02-07 16:22:00,-999.0,-99.9,-100.00,ENE,57,13.0,19.0,-999,-99.99,,,-99.99,,2013-02-07 21:22:00,
2013-02-07 16:32:00,-999.0,-99.9,-100.00,NE,45,14.0,21.0,-999,-99.99,,,-99.99,,2013-02-07 21:32:00,
2013-02-07 16:42:00,-999.0,-99.9,-100.00,NE,56,13.0,21.0,-999,-99.99,,,-99.99,,2013-02-07 21:42:00,
2013-02-07 16:52:00,-999.0,-99.9,-100.00,NE,55,11.0,16.0,-999,-99.99,,,-99.99,,2013-02-07 21:52:00,
2013-02-07 17:02:00,-999.0,-99.9,-100.00,ENE,72,10.0,17.0,-999,-99.99,,,-99.99,,2013-02-07 22:02:00,
2013-02-07 17:11:00,-999.0,-99.9,-100.00,ENE,62,9.0,13.0,-999,-99.99,,,-99.99,,2013-02-07 22:11:00,
2013-02-07 17:22:00,-999.0,-99.9,-100.00,ENE,68,12.0,18.0,-999,-99.99,,,-99.99,,2013-02-07 22:22:00,
2013-02-07 17:32:00,-999.0,-99.9,-100.00,ENE,78,11.0,18.0,-999,-99.99,,,-99.99,,2013-02-07 22:32:00,
2013-02-07 17:42:00,-999.0,-99.9,-100.00,ENE,74,12.0,17.0,-999,-99.99,,,-99.99,,2013-02-07 22:42:00,
2013-02-07 17:52:00,-999.0,-99.9,-100.00,East,81,13.0,18.0,-999,-99.99,,,-99.99,,2013-02-07 22:52:00,
2013-02-07 18:02:00,-999.0,-99.9,-100.00,East,81,13.0,16.0,-999,-99.99,,,-99.99,,2013-02-07 23:02:00,
2013-02-07 18:11:00,-999.0,-99.9,-100.00,East,82,13.0,19.0,-999,-99.99,,,-99.99,,2013-02-07 23:11:00,
2013-02-07 18:22:00,-999.0,-99.9,-100.00,ENE,70,11.0,18.0,-999,-99.99,,,-99.99,,2013-02-07 23:22:00,
2013-02-07 18:32:00,-999.0,-99.9,-100.00,East,81,13.0,19.0,-999,-99.99,,,-99.99,,2013-02-07 23:32:00,
2013-02-07 18:42:00,-999.0,-99.9,-100.00,ENE,77,11.0,16.0,-999,-99.99,,,-99.99,,2013-02-07 23:42:00,
2013-02-07 18:52:00,-999.0,-99.9,-100.00,ENE,77,14.0,19.0,-999,-99.99,,,-99.99,,2013-02-07 23:52:00,
2013-02-07 19:02:00,-999.0,-99.9,-100.00,East,80,12.0,17.0,-999,-99.99,,,-99.99,,2013-02-08 00:02:00,
2013-02-07 19:11:00,-999.0,-99.9,-100.00,ENE,74,8.0,15.0,-999,-99.99,,,-99.99,,2013-02-08 00:11:00,
2013-02-07 19:22:00,-999.0,-99.9,-100.00,East,80,12.0,18.0,-999,-99.99,,,-99.99,,2013-02-08 00:22:00,
2013-02-07 19:32:00,-999.0,-99.9,-100.00,East,82,11.0,19.0,-999,-99.99,,,-99.99,,2013-02-08 00:32:00,
2013-02-07 19:42:00,-999.0,-99.9,-100.00,ENE,78,13.0,19.0,-999,-99.99,,,-99.99,,2013-02-08 00:42:00,
2013-02-07 19:53:00,-999.0,-99.9,-100.00,ENE,75,12.0,20.0,-999,-99.99,,,-99.99,,2013-02-08 00:53:00,
2013-02-07 20:02:00,-999.0,-99.9,-100.00,East,82,12.0,18.0,-999,-99.99,,,-99.99,,2013-02-08 01:02:00,
2013-02-07 20:11:00,-999.0,-99.9,-100.00,East,82,15.0,20.0,-999,-99.99,,,-99.99,,2013-02-08 01:11:00,
2013-02-07 20:22:00,-999.0,-99.9,-100.00,East,83,12.0,18.0,-999,-99.99,,,-99.99,,2013-02-08 01:22:00,
2013-02-07 20:32:00,-999.0,-99.9,-100.00,ENE,77,12.0,16.0,-999,-99.99,,,-99.99,,2013-02-08 01:32:00,
2013-02-07 20:42:00,-999.0,-99.9,-100.00,ENE,75,11.0,17.0,-999,-99.99,,,-99.99,,2013-02-08 01:42:00,
2013-02-07 20:52:00,-999.0,-99.9,-100.00,ENE,77,13.0,20.0,-999,-99.99,,,-99.99,,2013-02-08 01:52:00,
2013-02-07 21:01:00,-999.0,-99.9,-100.00,ENE,68,15.0,20.0,-999,-99.99,,,-99.99,,2013-02-08 02:01:00,
2013-02-07 21:11:00,-999.0,-99.9,-100.00,ENE,66,14.0,21.0,-999,-99.99,,,-99.99,,2013-02-08 02:11:00,
2013-02-07 21:22:00,-999.0,-99.9,-100.00,ENE,65,11.0,19.0,-999,-99.99,,,-99.99,,2013-02-08 02:22:00,
2013-02-07 21:32:00,-999.0,-99.9,-100.00,ENE,76,13.0,21.0,-999,-99.99,,,-99.99,,2013-02-08 02:32:00,
2013-02-07 21:42:00,-999.0,-99.9,-100.00,ENE,77,13.0,18.0,-999,-99.99,,,-99.99,,2013-02-08 02:42:00,
2013-02-07 21:53:00,-999.0,-99.9,-100.00,East,84,9.0,20.0,-999,-99.99,,,-99.99,,2013-02-08 02:53:00,
2013-02-07 22:02:00,-999.0,-99.9,-100.00,ENE,76,11.0,18.0,-999,-99.99,,,-99.99,,2013-02-08 03:02:00,
2013-02-07 22:12:00,-999.0,-99.9,-100.00,East,87,10.0,14.0,-999,-99.99,,,-99.99,,2013-02-08 03:12:00,
2013-02-07 22:23:00,-999.0,-99.9,-100.00,East,92,9.0,14.0,-999,-99.99,,,-99.99,,2013-02-08 03:23:00,
2013-02-07 22:32:00,-999.0,-99.9,-100.00,East,83,9.0,13.0,-999,-99.99,,,-99.99,,2013-02-08 03:32:00,
2013-02-07 22:42:00,-999.0,-99.9,-100.00,East,80,7.0,11.0,-999,-99.99,,,-99.99,,2013-02-08 03:42:00,
2013-02-07 22:52:00,-999.0,-99.9,-100.00,ENE,71,7.0,9.0,-999,-99.99,,,-99.99,,2013-02-08 03:52:00,
2013-02-07 23:02:00,-999.0,-99.9,-100.00,East,83,6.0,8.0,-999,-99.99,,,-99.99,,2013-02-08 04:02:00,
2013-02-07 23:11:00,-999.0,-99.9,-100.00,ESE,104,6.0,9.0,-999,-99.99,,,-99.99,,2013-02-08 04:11:00,
2013-02-07 23:22:00,-999.0,-99.9,-100.00,East,80,7.0,11.0,-999,-99.99,,,-99.99,,2013-02-08 04:22:00,
2013-02-07 23:32:00,-999.0,-99.9,-100.00,ENE,76,6.0,9.0,-999,-99.99,,,-99.99,,2013-02-08 04:32:00,
2013-02-07 23:42:00,-999.0,-99.9,-100.00,ENE,78,5.0,8.0,-999,-99.99,,,-99.99,,2013-02-08 04:42:00,
2013-02-07 23:52:00,-999.0,-99.9,-100.00,ENE,78,4.0,8.0,-999,-99.99,,,-99.99,,2013-02-08 04:52:00,